createdAt,value
2017-07-08T00:01:22.011Z,69.90
2017-07-08T00:03:48.428Z,69.80
2017-07-08T00:06:14.870Z,70.00
2017-07-08T00:08:42.022Z,70.60
2017-07-08T00:11:09.469Z,70.90
2017-07-08T00:13:36.611Z,71.60
2017-07-08T00:16:03.002Z,70.80
2017-07-08T00:18:29.417Z,70.70
2017-07-08T00:20:55.812Z,70.70
2017-07-08T00:23:22.240Z,70.80
2017-07-08T00:25:48.645Z,70.20
2017-07-08T00:28:15.046Z,71.50
2017-07-08T00:30:41.451Z,71.90
2017-07-08T00:33:08.630Z,71.90
2017-07-08T00:35:35.040Z,71.30
2017-07-08T00:38:02.216Z,71.20
2017-07-08T00:40:28.617Z,71.20
2017-07-08T00:42:55.801Z,71.50
2017-07-08T00:45:28.013Z,71.40
2017-07-08T00:47:54.408Z,72.00
2017-07-08T00:50:20.834Z,71.50
2017-07-08T00:52:47.274Z,71.10
2017-07-08T00:55:13.664Z,71.40
2017-07-08T00:57:40.854Z,71.30
2017-07-08T01:00:07.279Z,71.30
2017-07-08T01:02:33.703Z,70.90
2017-07-08T01:05:00.130Z,71.00
2017-07-08T01:07:26.547Z,71.20
2017-07-08T01:09:53.715Z,70.60
2017-07-08T01:12:20.162Z,70.50
2017-07-08T01:14:46.559Z,71.20
2017-07-08T01:17:12.962Z,71.70
2017-07-08T01:19:39.381Z,72.10
2017-07-08T01:22:05.840Z,72.20
2017-07-08T01:24:32.257Z,71.80
2017-07-08T01:26:58.655Z,71.70
2017-07-08T01:29:25.058Z,70.90
2017-07-08T01:31:52.247Z,71.10
2017-07-08T01:34:18.647Z,70.40
2017-07-08T01:36:45.813Z,69.70
2017-07-08T01:39:12.975Z,69.60
2017-07-08T01:41:39.397Z,69.60
2017-07-08T01:44:05.829Z,69.50
2017-07-08T01:46:32.266Z,69.30
2017-07-08T01:48:58.680Z,69.00
2017-07-08T01:51:25.842Z,68.30
2017-07-08T01:53:52.462Z,68.30
2017-07-08T01:56:19.659Z,69.00
2017-07-08T01:58:46.041Z,69.00
2017-07-08T02:01:13.232Z,69.10
2017-07-08T02:03:39.644Z,69.70
2017-07-08T02:06:06.041Z,69.10
2017-07-08T02:08:32.457Z,69.10
2017-07-08T02:10:59.216Z,69.00
2017-07-08T02:13:25.647Z,69.20
2017-07-08T02:15:52.045Z,69.60
2017-07-08T02:18:18.477Z,69.50
2017-07-08T02:20:44.919Z,69.30
2017-07-08T02:23:11.288Z,68.90
2017-07-08T02:25:37.715Z,68.70
2017-07-08T02:28:04.147Z,68.80
2017-07-08T02:30:30.579Z,68.80
2017-07-08T02:32:56.994Z,68.80
2017-07-08T02:35:23.379Z,68.80
2017-07-08T02:37:49.796Z,68.10
2017-07-08T02:40:16.933Z,68.50
2017-07-08T02:42:43.325Z,68.30
2017-07-08T02:45:09.734Z,68.30
2017-07-08T02:47:36.206Z,68.60
2017-07-08T02:50:02.624Z,68.80
2017-07-08T02:52:29.057Z,68.70
2017-07-08T02:54:55.522Z,68.70
2017-07-08T02:57:21.937Z,68.70
2017-07-08T02:59:48.423Z,68.80
2017-07-08T03:02:14.869Z,68.70
2017-07-08T03:04:41.287Z,68.40
2017-07-08T03:07:07.695Z,68.80
2017-07-08T03:09:34.099Z,68.80
2017-07-08T03:12:00.509Z,68.90
2017-07-08T03:14:26.901Z,69.40
2017-07-08T03:16:53.308Z,69.20
2017-07-08T03:19:19.708Z,68.60
2017-07-08T03:21:46.117Z,68.90
2017-07-08T03:24:12.522Z,68.50
2017-07-08T03:26:38.949Z,68.60
2017-07-08T03:29:05.342Z,69.00
2017-07-08T03:31:31.788Z,69.20
2017-07-08T03:33:58.205Z,69.20
2017-07-08T03:36:24.595Z,68.60
2017-07-08T03:38:51.191Z,68.80
2017-07-08T03:41:17.601Z,69.00
2017-07-08T03:43:43.993Z,69.00
2017-07-08T03:46:10.403Z,69.10
2017-07-08T03:48:36.849Z,68.90
2017-07-08T03:51:03.270Z,69.20
2017-07-08T03:53:29.697Z,69.80
2017-07-08T03:55:56.127Z,68.90
2017-07-08T03:58:22.532Z,68.80
2017-07-08T04:00:48.961Z,68.80
2017-07-08T04:03:15.399Z,69.20
2017-07-08T04:05:41.799Z,69.30
2017-07-08T04:08:09.042Z,69.20
2017-07-08T04:10:36.279Z,68.90
2017-07-08T04:13:02.695Z,68.90
2017-07-08T04:15:29.077Z,70.00
2017-07-08T04:17:55.508Z,69.70
2017-07-08T04:20:22.656Z,70.90
2017-07-08T04:22:49.827Z,70.70
2017-07-08T04:25:16.264Z,70.70
2017-07-08T04:27:42.653Z,70.80
2017-07-08T04:30:09.044Z,71.60
2017-07-08T04:32:35.461Z,71.60
2017-07-08T04:35:01.908Z,72.00
2017-07-08T04:37:28.329Z,72.20
2017-07-08T04:39:54.734Z,72.40
2017-07-08T04:42:21.895Z,72.00
2017-07-08T04:44:48.304Z,72.00
2017-07-08T04:47:15.445Z,71.50
2017-07-08T04:49:41.927Z,71.30
2017-07-08T04:52:08.342Z,70.90
2017-07-08T04:54:34.790Z,70.60
2017-07-08T04:57:01.177Z,70.60
2017-07-08T04:59:28.018Z,70.10
2017-07-08T05:02:01.505Z,69.70
2017-07-08T05:04:27.911Z,69.40
2017-07-08T05:06:54.337Z,68.60
2017-07-08T05:09:20.791Z,69.00
2017-07-08T05:11:47.180Z,68.60
2017-07-08T05:14:14.339Z,68.10
2017-07-08T05:16:40.767Z,68.10
2017-07-08T05:19:07.210Z,67.90
2017-07-08T05:21:33.619Z,67.50
2017-07-08T05:24:00.757Z,67.20
2017-07-08T05:26:27.170Z,67.10
2017-07-08T05:28:53.589Z,66.90
2017-07-08T05:31:20.061Z,66.90
2017-07-08T05:33:47.210Z,66.40
2017-07-08T05:36:14.375Z,65.10
2017-07-08T05:38:40.797Z,65.10
2017-07-08T05:41:07.949Z,64.80
2017-07-08T05:43:35.138Z,64.80
2017-07-08T05:46:01.562Z,64.50
2017-07-08T05:48:27.940Z,63.80
2017-07-08T05:50:54.364Z,62.60
2017-07-08T05:53:20.777Z,61.40
2017-07-08T05:55:47.244Z,61.20
2017-07-08T05:58:13.647Z,60.20
2017-07-08T06:00:40.090Z,59.80
2017-07-08T06:03:06.509Z,58.40
2017-07-08T06:05:32.927Z,58.30
2017-07-08T06:07:59.346Z,57.80
2017-07-08T06:10:25.823Z,56.40
2017-07-08T06:12:52.229Z,56.90
2017-07-08T06:15:18.655Z,55.30
2017-07-08T06:17:45.046Z,54.30
2017-07-08T06:20:11.468Z,53.40
2017-07-08T06:22:37.877Z,52.40
2017-07-08T06:25:04.284Z,52.70
2017-07-08T06:27:30.698Z,51.00
2017-07-08T06:29:57.082Z,51.30
2017-07-08T06:32:23.487Z,50.20
2017-07-08T06:34:49.893Z,50.20
2017-07-08T06:37:17.031Z,50.90
2017-07-08T06:39:43.435Z,50.90
2017-07-08T06:42:09.867Z,50.20
2017-07-08T06:44:36.254Z,50.90
2017-07-08T06:47:02.691Z,51.10
2017-07-08T06:49:29.101Z,50.00
2017-07-08T06:51:56.260Z,50.50
2017-07-08T06:54:22.642Z,50.50
2017-07-08T06:56:49.061Z,50.20
2017-07-08T06:59:15.493Z,49.60
2017-07-08T07:01:41.893Z,49.90
2017-07-08T07:04:08.301Z,50.20
2017-07-08T07:06:34.704Z,51.10
2017-07-08T07:09:01.108Z,51.10
2017-07-08T07:11:27.541Z,51.00
2017-07-08T07:13:53.948Z,51.20
2017-07-08T07:16:34.688Z,50.40
2017-07-08T07:19:01.209Z,50.40
2017-07-08T07:21:27.619Z,50.80
2017-07-08T07:23:54.025Z,50.60
2017-07-08T07:26:20.424Z,51.10
2017-07-08T07:28:47.046Z,50.40
2017-07-08T07:31:13.457Z,50.40
2017-07-08T07:33:39.864Z,49.80
2017-07-08T07:36:07.027Z,51.10
2017-07-08T07:38:33.465Z,50.50
2017-07-08T07:40:59.867Z,50.30
2017-07-08T07:43:27.006Z,49.90
2017-07-08T07:45:53.406Z,49.90
2017-07-08T07:48:19.861Z,49.50
2017-07-08T07:50:46.281Z,49.80
2017-07-08T07:53:12.704Z,48.90
2017-07-08T07:55:39.142Z,48.70
2017-07-08T07:58:05.542Z,49.30
2017-07-08T08:00:31.908Z,49.40
2017-07-08T08:03:13.229Z,48.80
2017-07-08T08:05:40.376Z,47.00
2017-07-08T08:08:07.531Z,47.80
2017-07-08T08:10:33.919Z,47.60
2017-07-08T08:13:00.356Z,47.20
2017-07-08T08:15:26.734Z,47.50
2017-07-08T08:17:53.154Z,47.10
2017-07-08T08:20:20.294Z,47.10
2017-07-08T08:22:46.699Z,47.00
2017-07-08T08:25:13.084Z,44.10
2017-07-08T08:27:39.465Z,43.90
2017-07-08T08:30:05.903Z,43.20
2017-07-08T08:32:32.368Z,41.70
2017-07-08T08:34:58.789Z,42.20
2017-07-08T08:37:25.196Z,42.10
2017-07-08T08:39:51.632Z,42.80
2017-07-08T08:42:18.080Z,42.50
2017-07-08T08:44:44.473Z,42.40
2017-07-08T08:47:10.900Z,43.40
2017-07-08T08:49:37.333Z,41.60
2017-07-08T08:52:03.719Z,40.60
2017-07-08T08:54:30.162Z,41.70
2017-07-08T08:56:57.345Z,41.40
2017-07-08T08:59:23.777Z,40.90
2017-07-08T09:01:50.218Z,41.10
2017-07-08T09:04:16.649Z,40.90
2017-07-08T09:06:43.096Z,41.20
2017-07-08T09:09:09.494Z,41.60
2017-07-08T09:11:36.686Z,40.60
2017-07-08T09:14:03.194Z,40.50
2017-07-08T09:16:29.617Z,40.10
2017-07-08T09:18:56.778Z,39.50
2017-07-08T09:21:23.217Z,39.50
2017-07-08T09:23:49.611Z,39.00
2017-07-08T09:26:16.023Z,39.10
2017-07-08T09:28:42.401Z,37.30
2017-07-08T09:31:08.802Z,37.30
2017-07-08T09:33:35.217Z,37.20
2017-07-08T09:36:01.648Z,35.50
2017-07-08T09:38:28.089Z,36.90
2017-07-08T09:40:54.489Z,36.90
2017-07-08T09:43:20.935Z,35.30
2017-07-08T09:45:47.352Z,35.50
2017-07-08T09:48:13.777Z,33.90
2017-07-08T09:50:40.189Z,32.30
2017-07-08T09:53:07.323Z,34.00
2017-07-08T09:55:34.494Z,33.10
2017-07-08T09:58:00.912Z,32.50
2017-07-08T10:00:28.062Z,30.70
2017-07-08T10:02:55.205Z,32.80
2017-07-08T10:05:21.595Z,32.80
2017-07-08T10:07:48.013Z,32.50
2017-07-08T10:10:14.426Z,31.30
2017-07-08T10:12:55.752Z,30.60
2017-07-08T10:15:22.176Z,31.70
2017-07-08T10:17:48.588Z,32.00
2017-07-08T10:20:14.998Z,32.80
2017-07-08T10:22:41.433Z,31.50
2017-07-08T10:25:07.869Z,32.10
2017-07-08T10:27:35.018Z,29.00
2017-07-08T10:30:02.190Z,31.30
2017-07-08T10:32:28.620Z,31.30
2017-07-08T10:34:55.073Z,31.70
2017-07-08T10:37:21.472Z,29.30
2017-07-08T10:39:47.881Z,28.60
2017-07-08T10:42:14.767Z,29.50
2017-07-08T10:44:41.279Z,29.60
2017-07-08T10:47:07.703Z,30.00
2017-07-08T10:49:34.912Z,30.30
2017-07-08T10:52:01.359Z,30.30
2017-07-08T10:54:27.798Z,28.80
2017-07-08T10:56:54.253Z,27.60
2017-07-08T10:59:21.480Z,28.80
2017-07-08T11:01:47.907Z,28.40
2017-07-08T11:04:14.313Z,28.70
2017-07-08T11:06:40.763Z,28.50
2017-07-08T11:09:07.217Z,28.80
2017-07-08T11:11:33.638Z,27.70
2017-07-08T11:14:00.050Z,28.00
2017-07-08T11:16:26.450Z,28.10
2017-07-08T11:18:52.867Z,27.50
2017-07-08T11:21:19.383Z,27.70
2017-07-08T11:23:46.578Z,28.60
2017-07-08T11:26:13.048Z,28.60
2017-07-08T11:28:39.450Z,28.70
2017-07-08T11:31:05.848Z,28.60
2017-07-08T11:33:32.258Z,29.00
2017-07-08T11:36:05.802Z,29.00
2017-07-08T11:38:32.212Z,29.20
2017-07-08T11:40:58.636Z,29.00
2017-07-08T11:43:25.025Z,28.70
2017-07-08T11:45:51.483Z,28.60
2017-07-08T11:48:17.883Z,28.50
2017-07-08T11:50:44.295Z,29.10
2017-07-08T11:53:10.699Z,29.10
2017-07-08T11:55:37.120Z,29.40
2017-07-08T11:58:03.588Z,29.50
2017-07-08T12:00:30.736Z,29.40
2017-07-08T12:02:57.891Z,30.60
2017-07-08T12:05:25.023Z,30.20
2017-07-08T12:07:51.438Z,30.20
2017-07-08T12:10:17.840Z,29.90
2017-07-08T12:12:44.230Z,29.00
2017-07-08T12:15:10.647Z,28.80
2017-07-08T12:17:37.051Z,29.40
2017-07-08T12:20:03.469Z,28.80
2017-07-08T12:22:29.899Z,29.40
2017-07-08T12:24:57.229Z,28.70
2017-07-08T12:27:24.379Z,27.80
2017-07-08T12:29:51.541Z,28.70
2017-07-08T12:32:17.944Z,28.70
2017-07-08T12:34:44.372Z,29.00
2017-07-08T12:37:10.743Z,28.00
2017-07-08T12:39:37.171Z,28.40
2017-07-08T12:42:03.619Z,28.00
2017-07-08T12:44:30.047Z,28.30
2017-07-08T12:46:56.469Z,27.50
2017-07-08T12:49:22.974Z,27.10
2017-07-08T12:51:49.372Z,26.10
2017-07-08T12:54:15.780Z,25.80
2017-07-08T12:56:42.164Z,26.40
2017-07-08T12:59:08.583Z,27.00
2017-07-08T13:01:34.992Z,26.50
2017-07-08T13:04:01.385Z,26.50
2017-07-08T13:06:27.773Z,26.10
2017-07-08T13:08:54.140Z,30.30
2017-07-08T13:11:20.517Z,31.30
2017-07-08T13:13:46.912Z,32.20
2017-07-08T13:16:13.321Z,32.70
2017-07-08T13:18:39.739Z,32.20
2017-07-08T13:21:06.157Z,31.70
2017-07-08T13:23:32.581Z,31.70
2017-07-08T13:25:59.042Z,32.10
2017-07-08T13:28:25.475Z,31.40
2017-07-08T13:30:51.880Z,32.60
2017-07-08T13:33:18.301Z,31.70
2017-07-08T13:35:44.719Z,31.90
2017-07-08T13:38:11.182Z,32.40
2017-07-08T13:40:37.565Z,32.90
2017-07-08T13:43:03.972Z,33.50
2017-07-08T13:45:30.421Z,33.70
2017-07-08T13:47:56.788Z,34.00
2017-07-08T13:50:23.246Z,33.70
2017-07-08T13:52:50.035Z,33.40
2017-07-08T13:55:16.489Z,32.10
2017-07-08T13:57:43.342Z,32.80
2017-07-08T14:00:09.805Z,31.90
2017-07-08T14:02:36.204Z,31.80
2017-07-08T14:05:03.362Z,33.20
2017-07-08T14:07:29.782Z,33.20
2017-07-08T14:09:56.914Z,33.40
2017-07-08T14:12:30.955Z,32.70
2017-07-08T14:15:03.503Z,33.10
2017-07-08T14:17:29.917Z,33.70
2017-07-08T14:19:56.302Z,33.90
2017-07-08T14:22:22.691Z,33.80
2017-07-08T14:24:49.123Z,34.30
2017-07-08T14:27:15.517Z,34.10
2017-07-08T14:29:41.911Z,33.90
2017-07-08T14:32:09.093Z,33.30
2017-07-08T14:34:35.488Z,33.30
2017-07-08T14:37:01.902Z,33.00
2017-07-08T14:39:28.291Z,32.20
2017-07-08T14:41:54.725Z,31.30
2017-07-08T14:44:21.119Z,30.30
2017-07-08T14:46:47.512Z,31.30
2017-07-08T14:49:13.921Z,31.30
2017-07-08T14:51:40.372Z,30.70
2017-07-08T14:54:06.782Z,30.90
2017-07-08T14:56:33.152Z,31.00
2017-07-08T14:58:59.566Z,30.80
2017-07-08T15:01:26.001Z,30.80
2017-07-08T15:03:52.385Z,30.80
2017-07-08T15:06:19.533Z,30.30
2017-07-08T15:08:45.941Z,30.20
2017-07-08T15:11:12.341Z,30.60
2017-07-08T15:13:38.745Z,30.80
2017-07-08T15:16:05.127Z,30.40
2017-07-08T15:18:31.533Z,30.10
2017-07-08T15:20:57.963Z,31.00
2017-07-08T15:23:24.411Z,30.60
2017-07-08T15:25:51.196Z,30.60
2017-07-08T15:28:17.617Z,30.50
2017-07-08T15:30:43.994Z,30.80
2017-07-08T15:33:10.389Z,31.30
2017-07-08T15:35:36.823Z,31.30
2017-07-08T15:38:03.229Z,31.30
2017-07-08T15:40:29.632Z,31.90
2017-07-08T15:42:56.027Z,31.20
2017-07-08T15:45:22.442Z,31.80
2017-07-08T15:47:48.859Z,32.10
2017-07-08T15:50:30.181Z,32.10
2017-07-08T15:52:56.648Z,31.60
2017-07-08T15:55:23.066Z,32.10
2017-07-08T15:57:49.486Z,32.70
2017-07-08T16:00:15.884Z,34.00
2017-07-08T16:02:42.283Z,34.10
2017-07-08T16:05:08.710Z,34.10
2017-07-08T16:07:35.107Z,36.50
2017-07-08T16:10:01.519Z,36.90
2017-07-08T16:12:27.914Z,37.90
2017-07-08T16:14:54.312Z,40.00
2017-07-08T16:17:20.718Z,40.90
2017-07-08T16:19:47.164Z,41.70
2017-07-08T16:22:13.568Z,42.50
2017-07-08T16:24:39.966Z,43.70
2017-07-08T16:27:06.375Z,43.70
2017-07-08T16:29:33.556Z,44.10
2017-07-08T16:31:59.966Z,44.00
2017-07-08T16:34:27.108Z,44.90
2017-07-08T16:36:53.515Z,44.40
2017-07-08T16:39:19.910Z,43.60
2017-07-08T16:41:46.316Z,44.40
2017-07-08T16:44:13.494Z,46.30
2017-07-08T16:46:39.913Z,46.30
2017-07-08T16:49:06.322Z,46.90
2017-07-08T16:51:32.727Z,46.80
2017-07-08T16:53:59.118Z,47.30
2017-07-08T16:56:25.503Z,47.00
2017-07-08T16:58:51.900Z,46.90
2017-07-08T17:01:18.422Z,46.90
2017-07-08T17:03:44.827Z,47.40
2017-07-08T17:06:12.010Z,47.40
2017-07-08T17:08:38.398Z,47.30
2017-07-08T17:11:04.796Z,47.80
2017-07-08T17:13:31.214Z,48.70
2017-07-08T17:15:57.634Z,49.00
2017-07-08T17:18:24.044Z,49.40
2017-07-08T17:20:51.222Z,50.00
2017-07-08T17:23:18.368Z,50.20
2017-07-08T17:25:44.775Z,50.20
2017-07-08T17:28:11.957Z,50.60
2017-07-08T17:30:38.361Z,50.60
2017-07-08T17:33:04.772Z,50.50
2017-07-08T17:35:31.204Z,50.30
2017-07-08T17:37:57.635Z,50.20
2017-07-08T17:40:25.693Z,51.00
2017-07-08T17:42:52.454Z,50.40
2017-07-08T17:45:18.872Z,50.20
2017-07-08T17:47:45.271Z,50.30
2017-07-08T17:50:11.714Z,50.60
2017-07-08T17:52:38.167Z,50.40
2017-07-08T17:55:04.602Z,50.60
2017-07-08T17:57:31.028Z,50.70
2017-07-08T17:59:57.449Z,51.00
2017-07-08T18:02:23.943Z,50.90
2017-07-08T18:04:51.107Z,50.10
2017-07-08T18:07:17.690Z,50.10
2017-07-08T18:09:44.090Z,50.00
2017-07-08T18:12:10.482Z,50.10
2017-07-08T18:14:37.635Z,51.90
2017-07-08T18:17:04.028Z,51.10
2017-07-08T18:19:30.415Z,52.10
2017-07-08T18:21:57.584Z,52.00
2017-07-08T18:24:24.000Z,52.00
2017-07-08T18:26:51.134Z,53.20
2017-07-08T18:29:17.534Z,53.20
2017-07-08T18:31:43.947Z,52.80
2017-07-08T18:34:10.335Z,52.40
2017-07-08T18:36:37.482Z,53.70
2017-07-08T18:39:03.948Z,53.60
2017-07-08T18:41:30.398Z,54.10
2017-07-08T18:43:56.801Z,53.60
2017-07-08T18:46:23.224Z,53.40
2017-07-08T18:48:50.394Z,53.90
2017-07-08T18:51:16.797Z,53.80
2017-07-08T18:53:43.975Z,54.70
2017-07-08T18:56:10.393Z,54.10
2017-07-08T18:58:37.570Z,54.50
2017-07-08T19:01:03.977Z,54.50
2017-07-08T19:03:31.112Z,55.10
2017-07-08T19:05:57.504Z,55.10
2017-07-08T19:08:24.171Z,54.90
2017-07-08T19:10:50.599Z,55.30
2017-07-08T19:13:17.014Z,55.50
2017-07-08T19:15:43.420Z,55.90
2017-07-08T19:18:09.810Z,55.70
2017-07-08T19:20:36.944Z,56.90
2017-07-08T19:23:03.368Z,56.40
2017-07-08T19:25:29.766Z,57.10
2017-07-08T19:27:56.180Z,56.50
2017-07-08T19:30:22.578Z,56.40
2017-07-08T19:32:48.981Z,54.70
2017-07-08T19:35:15.408Z,55.00
2017-07-08T19:37:41.837Z,54.50
2017-07-08T19:40:08.262Z,55.70
2017-07-08T19:42:34.660Z,57.70
2017-07-08T19:45:01.860Z,56.80
2017-07-08T19:47:28.325Z,56.50
2017-07-08T19:49:54.772Z,56.90
2017-07-08T19:52:21.175Z,57.50
2017-07-08T19:54:47.625Z,57.40
2017-07-08T19:57:14.141Z,55.80
2017-07-08T19:59:40.554Z,54.10
2017-07-08T20:02:06.957Z,54.10
2017-07-08T20:04:34.154Z,55.90
2017-07-08T20:07:00.665Z,55.90
2017-07-08T20:09:27.349Z,58.00
2017-07-08T20:11:53.764Z,58.10
2017-07-08T20:14:20.268Z,58.20
2017-07-08T20:16:46.746Z,58.00
2017-07-08T20:19:13.165Z,58.20
2017-07-08T20:21:39.671Z,58.60
2017-07-08T20:24:06.140Z,58.80
2017-07-08T20:26:32.578Z,59.20
2017-07-08T20:28:58.961Z,59.00
2017-07-08T20:31:26.179Z,58.90
2017-07-08T20:33:53.389Z,58.30
2017-07-08T20:36:19.847Z,58.20
2017-07-08T20:38:47.065Z,57.70
2017-07-08T20:41:13.469Z,57.60
2017-07-08T20:43:40.698Z,57.50
2017-07-08T20:46:07.912Z,57.80
2017-07-08T20:48:34.335Z,57.80
2017-07-08T20:51:00.764Z,59.70
2017-07-08T20:53:27.270Z,61.90
2017-07-08T20:55:54.498Z,62.30
2017-07-08T20:58:20.985Z,62.20
2017-07-08T21:00:47.488Z,62.60
2017-07-08T21:03:14.683Z,61.60
2017-07-08T21:05:41.195Z,61.40
2017-07-08T21:08:07.714Z,62.30
2017-07-08T21:10:34.159Z,62.50
2017-07-08T21:13:00.663Z,62.30
2017-07-08T21:15:27.849Z,63.80
2017-07-08T21:17:54.277Z,63.80
2017-07-08T21:20:20.744Z,65.30
2017-07-08T21:22:47.164Z,67.00
2017-07-08T21:25:13.566Z,67.50
2017-07-08T21:27:40.746Z,71.50
2017-07-08T21:30:07.142Z,71.30
2017-07-08T21:32:33.544Z,72.40
2017-07-08T21:34:59.940Z,73.30
2017-07-08T21:37:26.390Z,73.80
2017-07-08T21:39:52.948Z,73.80
2017-07-08T21:42:19.353Z,73.20
2017-07-08T21:44:45.756Z,72.60
2017-07-08T21:47:12.903Z,73.80
2017-07-08T21:49:40.052Z,73.70
2017-07-08T21:52:07.236Z,72.80
2017-07-08T21:54:33.640Z,72.80
2017-07-08T21:57:00.787Z,72.50
2017-07-08T21:59:27.210Z,72.10
2017-07-08T22:01:54.364Z,72.10
2017-07-08T22:04:21.513Z,71.90
2017-07-08T22:06:48.630Z,71.20
2017-07-08T22:09:15.383Z,71.20
2017-07-08T22:11:41.792Z,71.30
2017-07-08T22:14:08.181Z,70.90
2017-07-08T22:16:34.614Z,71.10
2017-07-08T22:19:01.032Z,71.20
2017-07-08T22:21:28.177Z,71.30
2017-07-08T22:23:55.335Z,72.00
2017-07-08T22:26:22.444Z,72.70
2017-07-08T22:28:48.860Z,72.60
2017-07-08T22:31:15.275Z,72.30
2017-07-08T22:33:41.691Z,72.50
2017-07-08T22:36:08.848Z,72.00
2017-07-08T22:38:35.256Z,72.00
2017-07-08T22:41:02.442Z,72.20
2017-07-08T22:43:28.826Z,72.10
2017-07-08T22:45:55.237Z,72.00
2017-07-08T22:48:21.642Z,71.70
2017-07-08T22:50:48.408Z,72.20
2017-07-08T22:53:14.948Z,72.30
2017-07-08T22:55:41.346Z,73.00
2017-07-08T22:58:07.788Z,72.40
2017-07-08T23:00:34.212Z,71.70
2017-07-08T23:03:00.599Z,72.20
2017-07-08T23:05:27.011Z,72.30
2017-07-08T23:07:53.410Z,72.10
2017-07-08T23:10:19.863Z,71.70
2017-07-08T23:12:46.289Z,72.00
2017-07-08T23:15:12.708Z,72.20
2017-07-08T23:17:39.092Z,72.30
2017-07-08T23:20:05.484Z,72.10
2017-07-08T23:22:31.912Z,72.30
2017-07-08T23:24:58.307Z,72.20
2017-07-08T23:27:24.688Z,71.80
2017-07-08T23:29:51.941Z,71.80
2017-07-08T23:32:18.356Z,72.10
2017-07-08T23:34:44.783Z,72.00
2017-07-08T23:37:11.188Z,71.60
2017-07-08T23:39:37.610Z,71.50
2017-07-08T23:42:04.025Z,71.60
2017-07-08T23:44:30.415Z,71.90
2017-07-08T23:46:56.833Z,71.40
2017-07-08T23:49:23.257Z,72.00
2017-07-08T23:51:50.398Z,72.20
2017-07-08T23:54:17.555Z,71.70
2017-07-08T23:56:44.760Z,72.50
2017-07-08T23:59:11.229Z,72.50
